Flight Track Log - Related Links

Times and Time Zones

All times are in EDT time to prevent confusion due to time zone crossing. See the SWA279 flight status page for this flight to view local times or setup timezone preferences in your user account.


Time Position Orientation Groundspeed Altitude Reporting Facility
EDT Latitude Longitude Course Direction KTS MPH feet Rate Location/Type
Thu 07:00:28 AM 42.9500 -71.4167 14° North 158 182 1,200  Level KA90
Thu 07:01:16 AM 43.0000 -71.4000 14° North 219 252 3,100 2,769 Climbing KA90
Thu 07:02:25 AM 43.0506 -71.4597 319° Northwest 280 322 6,600 3,488 Climbing Boston Center
Thu 07:03:25 AM 43.0700 -71.5506 286° West 249 287 10,600 2,628 Climbing Boston Center
Thu 07:04:26 AM 43.0750 -71.6614 274° West 280 322 11,900 2,361 Climbing Boston Center
Thu 07:05:27 AM 43.0800 -71.7919 273° West 335 386 15,400 3,126 Climbing Boston Center
Thu 07:06:25 AM 43.0850 -71.9200 273° West 348 400 18,100 2,218 Climbing Boston Center
Thu 07:07:26 AM 43.0897 -72.0592 273° West 353 406 19,800 1,967 Climbing Boston Center
Thu 07:08:27 AM 43.0961 -72.2014 274° West 364 419 22,100 2,168 Climbing Boston Center
Thu 07:09:25 AM 43.1089 -72.3461 277° West 378 435 24,100 1,850 Climbing Boston Center
Thu 07:10:27 AM 43.1111 -72.4997 271° West 390 449 25,800 1,650 Climbing Boston Center
Thu 07:11:25 AM 43.1131 -72.6619 271° West 409 471 27,400 1,765 Climbing Boston Center
Thu 07:12:26 AM 43.1167 -72.8242 272° West 424 488 29,300 1,983 Climbing Boston Center
Thu 07:13:26 AM 43.1203 -72.9778 272° West 424 488 31,400 2,085 Climbing Boston Center
Thu 07:14:24 AM 43.1256 -73.1314 273° West 413 475 33,400 1,714 Climbing Boston Center
Thu 07:15:25 AM 43.1269 -73.2536 271° West 408 470 34,800 1,289 Climbing Boston Center
Thu 07:16:25 AM 43.1281 -73.3817 271° West 390 449 36,000 595 Climbing Boston Center
Thu 07:17:26 AM 43.1325 -73.5694 272° West 384 442 36,000  Level Boston Center
Thu 07:18:26 AM 43.1353 -73.7006 272° West 384 442 36,000  Level Boston Center
Thu 07:19:26 AM 43.1378 -73.8486 271° West 384 442 36,000  Level Boston Center
Thu 07:20:24 AM 43.1400 -73.9936 271° West 384 442 36,000  Level Boston Center
Thu 07:21:26 AM 43.1442 -74.1389 272° West 384 442 36,000  Level Boston Center
Thu 07:22:26 AM 43.1464 -74.2783 271° West 384 442 36,000  Level Boston Center
Thu 07:23:26 AM 43.1481 -74.4264 271° West 384 442 36,000  Level Boston Center
Thu 07:24:27 AM 43.1494 -74.5803 271° West 384 442 36,000  Level Boston Center
Thu 07:25:25 AM 43.1403 -74.7278 265° West 384 442 36,000  Level Boston Center
Thu 07:26:25 AM 43.1122 -74.8692 255° West 389 448 36,000  Level Boston Center
Thu 07:27:26 AM 43.0819 -75.0128 254° West 389 448 36,000  Level Boston Center
Thu 07:28:24 AM 43.0536 -75.1567 255° West 395 455 36,000  Level Boston Center
Thu 07:29:27 AM 43.0253 -75.2975 255° West 395 455 36,000  Level Boston Center
Thu 07:30:24 AM 42.9967 -75.4408 255° West 395 455 36,000  Level Boston Center
Thu 07:31:25 AM 42.9719 -75.5844 257° West 395 455 36,000  Level Boston Center
Thu 07:32:27 AM 42.9406 -75.7275 253° West 395 455 36,000  Level Boston Center
Thu 07:33:24 AM 42.9114 -75.8733 255° West 395 455 36,000  Level Boston Center
Thu 07:34:25 AM 42.8819 -76.0136 254° West 395 455 36,000  Level Boston Center
Thu 07:36:02 AM 42.8311 -76.2483 254° West 395 455 36,000  Level Cleveland Center
Thu 07:37:02 AM 42.8031 -76.3889 255° West 395 455 36,000  Level Cleveland Center
Thu 07:38:02 AM 42.7728 -76.5353 254° West 390 449 36,000  Level Cleveland Center
Thu 07:39:02 AM 42.7403 -76.6789 253° West 395 455 36,000  Level Cleveland Center
Thu 07:40:02 AM 42.7094 -76.8219 254° West 395 455 36,000  Level Cleveland Center
Thu 07:41:02 AM 42.6808 -76.9650 255° West 395 455 36,000  Level Cleveland Center
Thu 07:42:02 AM 42.6475 -77.1081 252° West 401 461 36,000  Level Cleveland Center
Thu 07:43:02 AM 42.6186 -77.2564 255° West 401 461 36,000  Level Cleveland Center
Thu 07:44:02 AM 42.6164 -77.4033 269° West 401 461 36,000  Level Cleveland Center
Thu 07:45:02 AM 42.6186 -77.5556 271° West 401 461 36,000  Level Cleveland Center
Thu 07:46:02 AM 42.6181 -77.7053 270° West 406 467 36,000  Level Cleveland Center
Thu 07:47:02 AM 42.6153 -77.8408 268° West 401 461 36,000 200 Level Cleveland Center
Thu 07:48:02 AM 42.6144 -77.9847 270° West 401 461 36,400 950 Climbing Cleveland Center
Thu 07:49:02 AM 42.6133 -78.1258 269° West 396 456 37,900 800 Climbing Cleveland Center
Thu 07:50:02 AM 42.6122 -78.2725 269° West 391 450 38,000 50 Climbing Cleveland Center
Thu 07:51:02 AM 42.6108 -78.4136 269° West 386 444 38,000  Level Cleveland Center
Thu 07:52:02 AM 42.6072 -78.5606 268° West 386 444 38,000  Level Cleveland Center
Thu 07:53:02 AM 42.6075 -78.7072 270° West 386 444 38,000  Level Cleveland Center
Thu 07:54:02 AM 42.6056 -78.8511 269° West 386 444 38,000  Level Cleveland Center
Thu 07:55:02 AM 42.6036 -78.9950 269° West 386 444 38,000  Level Cleveland Center
Thu 07:56:02 AM 42.6014 -79.1419 269° West 386 444 38,000  Level Cleveland Center
Thu 07:57:02 AM 42.5989 -79.2858 269° West 386 444 38,000  Level Cleveland Center
Thu 07:58:02 AM 42.5961 -79.4353 269° West 386 444 38,000  Level Cleveland Center
Thu 07:59:02 AM 42.5933 -79.5819 269° West 386 444 38,000  Level Cleveland Center
Thu 08:00:02 AM 42.5906 -79.7314 269° West 391 450 38,000  Level Cleveland Center
Thu 08:01:02 AM 42.5872 -79.8781 268° West 391 450 38,000  Level Cleveland Center
Thu 08:02:02 AM 42.5797 -80.0278 266° West 391 450 38,000  Level Cleveland Center
Thu 08:03:02 AM 42.5742 -80.1744 267° West 396 456 38,000  Level Cleveland Center
Thu 08:04:02 AM 42.5703 -80.3322 268° West 396 456 38,000  Level Cleveland Center
Thu 08:05:02 AM 42.5664 -80.4844 268° West 401 461 38,000  Level Cleveland Center
Thu 08:06:02 AM 42.5622 -80.6311 268° West 401 461 38,000  Level Cleveland Center
Thu 08:07:02 AM 42.5581 -80.7778 268° West 406 467 38,000  Level Cleveland Center
Thu 08:08:02 AM 42.5533 -80.9269 268° West 406 467 38,000  Level Cleveland Center
Thu 08:09:02 AM 42.5489 -81.0764 268° West 401 461 38,000  Level Cleveland Center
Thu 08:10:02 AM 42.5417 -81.2256 266° West 401 461 38,000  Level Cleveland Center
Thu 08:11:02 AM 42.5367 -81.3750 267° West 401 461 38,000  Level Cleveland Center
Thu 08:12:02 AM 42.5314 -81.5297 267° West 407 468 38,000  Level Cleveland Center
Thu 08:13:02 AM 42.5278 -81.6819 268° West 413 475 38,000  Level Cleveland Center
Thu 08:14:02 AM 42.5181 -81.8283 265° West 408 470 38,000  Level Cleveland Center
Thu 08:15:02 AM 42.5122 -81.9775 267° West 408 470 38,000  Level Cleveland Center
Thu 08:16:02 AM 42.5061 -82.1294 267° West 408 470 38,000  Level Cleveland Center
Thu 08:17:02 AM 42.4997 -82.2814 267° West 403 464 38,000  Level Cleveland Center
Thu 08:18:02 AM 42.4933 -82.4333 267° West 403 464 38,000  Level Cleveland Center
Thu 08:19:02 AM 42.4867 -82.5794 267° West 403 464 38,000  Level Cleveland Center
Thu 08:20:02 AM 42.4797 -82.7283 266° West 403 464 38,000  Level Cleveland Center
Thu 08:21:02 AM 42.4706 -82.8803 265° West 403 464 38,000  Level Cleveland Center
Thu 08:22:02 AM 42.4633 -83.0292 266° West 403 464 38,000  Level Cleveland Center
Thu 08:23:02 AM 42.4558 -83.1781 266° West 403 464 38,000  Level Cleveland Center
Thu 08:24:02 AM 42.4503 -83.3269 267° West 403 464 38,000  Level Cleveland Center
Thu 08:25:02 AM 42.4450 -83.4644 267° West 403 464 38,000  Level Cleveland Center
Thu 08:26:02 AM 42.4350 -83.6133 265° West 403 464 38,000  Level Cleveland Center
Thu 08:27:02 AM 42.4244 -83.7647 265° West 403 464 38,000  Level Cleveland Center
Thu 08:29:31 AM 42.4031 -84.1308 266° West 399 459 38,000  Level Chicago Center
Thu 08:30:33 AM 42.3933 -84.2797 265° West 399 459 38,000  Level Chicago Center
Thu 08:31:34 AM 42.3839 -84.4303 265° West 402 463 38,000  Level Chicago Center
Thu 08:32:35 AM 42.3744 -84.5778 265° West 395 455 38,000  Level Chicago Center
Thu 08:33:36 AM 42.3656 -84.7233 265° West 391 450 38,000  Level Chicago Center
Thu 08:34:37 AM 42.3536 -84.8975 265° West 388 447 38,000  Level Chicago Center
Thu 08:35:38 AM 42.3439 -85.0419 265° West 389 448 38,000  Level Chicago Center
Thu 08:36:39 AM 42.3333 -85.1867 264° West 387 445 38,000  Level Chicago Center
Thu 08:37:41 AM 42.3233 -85.3294 265° West 384 442 38,000  Level Chicago Center
Thu 08:38:42 AM 42.3128 -85.4747 264° West 387 445 38,000  Level Chicago Center
Thu 08:39:43 AM 42.3025 -85.6164 264° West 381 438 38,000  Level Chicago Center
Thu 08:40:44 AM 42.3033 -85.7586 271° West 385 443 38,000  Level Chicago Center
Thu 08:41:45 AM 42.3189 -85.9006 278° West 382 440 38,000  Level Chicago Center
Thu 08:42:46 AM 42.3342 -86.0436 278° West 384 442 38,000  Level Chicago Center
Thu 08:43:47 AM 42.3511 -86.1842 279° West 380 437 38,000  Level Chicago Center
Thu 08:44:48 AM 42.3675 -86.3242 279° West 377 434 38,000  Level Chicago Center
Thu 08:45:49 AM 42.3853 -86.4639 280° West 376 433 38,000  Level Chicago Center
Thu 08:46:50 AM 42.4064 -86.6033 282° West 377 434 38,000  Level Chicago Center
Thu 08:47:51 AM 42.4331 -86.7714 282° West 390 449 38,000  Level Chicago Center
Thu 08:48:52 AM 42.4558 -86.9106 283° West 385 443 38,000  Level Chicago Center
Thu 08:49:53 AM 42.4794 -87.0508 283° West 385 443 38,000  Level Chicago Center
Thu 08:50:54 AM 42.5042 -87.1883 284° West 380 437 38,000  Level Chicago Center
Thu 08:51:54 AM 42.5297 -87.3303 284° West 388 447 38,000  Level Chicago Center
Thu 08:52:55 AM 42.5569 -87.4722 285° West 390 449 38,000  Level Chicago Center
Thu 08:53:56 AM 42.5617 -87.6144 273° West 382 440 38,000  Level Chicago Center
Thu 08:54:57 AM 42.5428 -87.7519 259° West 369 425 38,000  Level Chicago Center
Thu 08:55:58 AM 42.5214 -87.9169 260° West 376 433 38,000  Level Chicago Center
Thu 08:56:59 AM 42.5019 -88.0608 260° West 386 444 38,000  Level Chicago Center
Thu 08:58:00 AM 42.4839 -88.2053 260° West 387 445 38,000  Level Chicago Center
Thu 08:59:01 AM 42.4639 -88.3478 259° West 384 442 38,000  Level Chicago Center
Thu 09:00:02 AM 42.4450 -88.4883 260° West 380 437 38,000  Level Chicago Center
Thu 09:01:03 AM 42.4250 -88.6308 259° West 382 440 38,000  Level Chicago Center
Thu 09:02:04 AM 42.4056 -88.7717 259° West 381 438 38,000  Level Chicago Center
Thu 09:03:05 AM 42.3864 -88.9103 259° West 376 433 38,000  Level Chicago Center
Thu 09:04:06 AM 42.3664 -89.0503 259° West 377 434 38,000  Level Chicago Center
Thu 09:05:07 AM 42.3458 -89.1911 259° West 381 438 38,000  Level Chicago Center
Thu 09:06:08 AM 42.3247 -89.3336 259° West 385 443 38,000  Level Chicago Center
Thu 09:07:09 AM 42.3047 -89.4772 259° West 388 447 38,000  Level Chicago Center
Thu 09:08:10 AM 42.2847 -89.6206 259° West 389 448 38,000  Level Chicago Center
Thu 09:09:11 AM 42.2628 -89.7633 258° West 388 447 38,000  Level Chicago Center
Thu 09:10:12 AM 42.2397 -89.9211 259° West 384 442 38,000  Level Chicago Center
Thu 09:11:13 AM 42.2181 -90.0617 258° West 385 443 38,000  Level Chicago Center
Thu 09:12:14 AM 42.1958 -90.2022 258° West 386 444 38,000  Level Chicago Center
Thu 09:13:15 AM 42.1750 -90.3431 259° West 386 444 38,000  Level Chicago Center
Thu 09:14:16 AM 42.1528 -90.4836 258° West 387 445 38,000  Level Chicago Center
Thu 09:15:17 AM 42.1311 -90.6253 258° West 388 447 38,000  Level Chicago Center
Thu 09:16:18 AM 42.1089 -90.7667 258° West 387 445 38,000  Level Chicago Center
Thu 09:17:19 AM 42.0853 -90.9092 257° West 391 450 38,000  Level Chicago Center
Thu 09:18:20 AM 42.0622 -91.0519 258° West 393 452 38,000  Level Chicago Center
Thu 09:19:21 AM 42.0389 -91.1953 258° West 393 452 38,000  Level Chicago Center
Thu 09:20:22 AM 42.0106 -91.3639 257° West 388 447 38,000  Level Chicago Center
Thu 09:21:23 AM 41.9875 -91.5069 258° West 391 450 38,000  Level Chicago Center
Thu 09:22:24 AM 41.9633 -91.6508 257° West 393 452 38,000  Level Chicago Center
Thu 09:23:25 AM 41.9392 -91.7931 257° West 393 452 38,000  Level Chicago Center
Thu 09:24:26 AM 41.9158 -91.9325 257° West 386 444 38,000  Level Chicago Center
Thu 09:25:27 AM 41.8925 -92.0706 257° West 381 438 38,000  Level Chicago Center
Thu 09:26:28 AM 41.8692 -92.2053 257° West 373 429 38,000  Level Chicago Center
Thu 09:27:30 AM 41.8458 -92.3419 257° West 378 435 38,000  Level Chicago Center
Thu 09:28:31 AM 41.8217 -92.4800 257° West 381 438 38,000  Level Chicago Center
Thu 09:29:32 AM 41.7972 -92.6200 257° West 387 445 38,000  Level Chicago Center
Thu 09:30:13 AM 41.7769 -92.7333 257° West 388 447 38,000  Level Minneapolis Center
Thu 09:31:15 AM 41.7519 -92.8750 257° West 386 444 38,000  Level Minneapolis Center
Thu 09:32:16 AM 41.7269 -93.0147 257° West 389 448 38,000  Level Minneapolis Center
Thu 09:33:18 AM 41.7014 -93.1533 256° West 388 447 38,000  Level Minneapolis Center
Thu 09:34:19 AM 41.6758 -93.2897 256° West 385 443 38,000  Level Minneapolis Center
Thu 09:35:20 AM 41.6458 -93.4531 256° West 382 440 38,000  Level Minneapolis Center
Thu 09:36:22 AM 41.6206 -93.5900 256° West 382 440 38,000  Level Minneapolis Center
Thu 09:37:24 AM 41.5947 -93.7242 256° West 381 438 38,000  Level Minneapolis Center
Thu 09:38:25 AM 41.5717 -93.8542 257° West 375 432 38,000  Level Minneapolis Center
Thu 09:39:26 AM 41.5469 -93.9903 256° West 378 435 38,000  Level Minneapolis Center
Thu 09:40:28 AM 41.5206 -94.1267 256° West 382 440 38,000  Level Minneapolis Center
Thu 09:41:29 AM 41.5031 -94.2767 261° West 394 453 38,000  Level Minneapolis Center
Thu 09:42:31 AM 41.4925 -94.4208 264° West 393 452 38,000  Level Minneapolis Center
Thu 09:43:32 AM 41.4772 -94.5933 263° West 392 451 38,000  Level Minneapolis Center
Thu 09:44:34 AM 41.4653 -94.7367 264° West 390 449 38,000  Level Minneapolis Center
Thu 09:45:35 AM 41.4517 -94.8806 263° West 392 451 38,000  Level Minneapolis Center
Thu 09:46:37 AM 41.4400 -95.0242 264° West 389 448 38,000  Level Minneapolis Center
Thu 09:47:38 AM 41.4289 -95.1406 263° West 392 451 38,000  Level Minneapolis Center
Thu 09:48:40 AM 41.4128 -95.3183 263° West 402 463 38,000  Level Minneapolis Center
Thu 09:49:41 AM 41.3981 -95.4681 263° West 407 468 38,000  Level Minneapolis Center
Thu 09:50:43 AM 41.3833 -95.6147 262° West 402 463 38,000  Level Minneapolis Center
Thu 09:51:44 AM 41.3694 -95.7700 263° West 402 463 38,000  Level Minneapolis Center
Thu 09:52:46 AM 41.3550 -95.9183 263° West 404 465 38,000  Level Minneapolis Center
Thu 09:53:47 AM 41.3406 -96.0672 263° West 406 467 38,000  Level Minneapolis Center
Thu 09:54:49 AM 41.3217 -96.2478 262° West 408 470 38,000  Level Minneapolis Center
Thu 09:55:50 AM 41.3097 -96.3703 263° West 405 466 38,000  Level Minneapolis Center
Thu 09:56:52 AM 41.2919 -96.5486 263° West 406 467 38,000  Level Minneapolis Center
Thu 09:57:53 AM 41.2756 -96.6961 262° West 407 468 38,000  Level Minneapolis Center
Thu 09:58:55 AM 41.2594 -96.8433 262° West 405 466 38,000  Level Minneapolis Center
Thu 09:59:56 AM 41.2439 -96.9919 262° West 407 468 38,000  Level Minneapolis Center
Thu 10:00:58 AM 41.2272 -97.1394 262° West 406 467 38,000  Level Minneapolis Center
Thu 10:01:59 AM 41.2106 -97.2878 262° West 406 467 38,000  Level Minneapolis Center
Thu 10:03:01 AM 41.1942 -97.4344 262° West 407 468 38,000  Level Minneapolis Center
Thu 10:04:02 AM 41.1742 -97.6153 262° West 411 473 38,000  Level Minneapolis Center
Thu 10:05:04 AM 41.1569 -97.7631 261° West 408 470 38,000  Level Minneapolis Center
Thu 10:06:05 AM 41.1406 -97.9103 262° West 405 466 38,000  Level Minneapolis Center
Thu 10:07:07 AM 41.1233 -98.0592 261° West 406 467 38,000  Level Minneapolis Center
Thu 10:08:08 AM 41.1053 -98.2094 261° West 409 471 38,000  Level Minneapolis Center
Thu 10:09:10 AM 41.0875 -98.3600 261° West 411 473 38,000  Level Minneapolis Center
Thu 10:10:11 AM 41.0700 -98.5075 261° West 412 474 38,000  Level Minneapolis Center
Thu 10:11:13 AM 41.0519 -98.6564 261° West 411 473 38,000  Level Minneapolis Center
Thu 10:12:14 AM 41.0342 -98.8036 261° West 408 470 38,000  Level Minneapolis Center
Thu 10:13:16 AM 41.0111 -98.9808 260° West 408 470 38,000  Level Minneapolis Center
Thu 10:14:17 AM 40.9928 -99.1272 261° West 406 467 38,000  Level Minneapolis Center
Thu 10:14:50 AM 40.9831 -99.2044 261° West 408 470 38,000  Level Denver Center
Thu 10:15:51 AM 40.9661 -99.3253 260° West 413 475 38,000  Level Denver Center
Thu 10:16:53 AM 40.9383 -99.5044 258° West 414 476 38,000  Level Denver Center
Thu 10:17:54 AM 40.9164 -99.6558 259° West 417 480 38,000  Level Denver Center
Thu 10:18:55 AM 40.8933 -99.8067 259° West 418 481 38,000  Level Denver Center
Thu 10:19:56 AM 40.8686 -99.9667 259° West 418 481 38,000  Level Denver Center
Thu 10:20:58 AM 40.8422 -100.1358 258° West 420 483 38,000  Level Denver Center
Thu 10:21:59 AM 40.8194 -100.2794 258° West 418 481 38,000  Level Denver Center
Thu 10:23:00 AM 40.7975 -100.4236 259° West 417 480 38,000  Level Denver Center
Thu 10:24:01 AM 40.7717 -100.5903 258° West 413 475 38,000  Level Denver Center
Thu 10:25:03 AM 40.7475 -100.7358 258° West 414 476 38,000  Level Denver Center
Thu 10:26:04 AM 40.7233 -100.8833 258° West 421 484 38,000  Level Denver Center
Thu 10:27:05 AM 40.7000 -101.0289 258° West 422 486 38,000  Level Denver Center
Thu 10:28:06 AM 40.6767 -101.1725 258° West 420 483 38,000  Level Denver Center
Thu 10:29:08 AM 40.6492 -101.3417 258° West 422 486 38,000  Level Denver Center
Thu 10:30:09 AM 40.6217 -101.5097 258° West 421 484 38,000  Level Denver Center
Thu 10:31:11 AM 40.5978 -101.6528 258° West 418 481 38,000  Level Denver Center
Thu 10:32:12 AM 40.5736 -101.7953 257° West 417 480 38,000  Level Denver Center
Thu 10:33:14 AM 40.5442 -101.9594 257° West 413 475 38,000  Level Denver Center
Thu 10:34:15 AM 40.5200 -102.0994 257° West 412 474 38,000  Level Denver Center
Thu 10:35:17 AM 40.4906 -102.2625 257° West 410 472 38,000  Level Denver Center
Thu 10:36:18 AM 40.4669 -102.4028 258° West 410 472 38,000 -49 Level Denver Center
Thu 10:37:20 AM 40.4414 -102.5422 257° West 411 473 37,900 -1,317 Descending Denver Center
Thu 10:38:21 AM 40.4117 -102.7119 257° West 407 468 35,300 -2,780 Descending Denver Center
Thu 10:39:23 AM 40.3833 -102.8608 256° West 416 479 32,200 -2,661 Descending Denver Center
Thu 10:40:25 AM 40.3575 -103.0111 257° West 420 483 29,800 -2,293 Descending Denver Center
Thu 10:41:26 AM 40.3306 -103.1533 256° West 401 461 27,500 -2,146 Descending Denver Center
Thu 10:42:28 AM 40.3067 -103.2919 257° West 389 448 25,400 -2,049 Descending Denver Center
Thu 10:43:29 AM 40.2819 -103.4233 256° West 370 426 23,300 -1,951 Descending Denver Center
Thu 10:44:31 AM 40.2575 -103.5467 255° West 350 403 21,400 -1,790 Descending Denver Center
Thu 10:45:33 AM 40.2358 -103.6661 257° West 335 386 19,600 -1,659 Descending Denver Center
Thu 10:46:34 AM 40.2117 -103.7964 256° West 341 392 18,000 -1,220 Descending Denver Center
Thu 10:47:36 AM 40.2039 -103.9069 265° West 309 356 17,100 -1,161 Descending Denver Center
Thu 10:48:38 AM 40.2156 -104.0200 278° West 294 338 15,600 -1,403 Descending Denver Center
Thu 10:49:40 AM 40.2250 -104.1208 277° West 283 326 14,200 -1,268 Descending Denver Center
Thu 10:50:41 AM 40.2342 -104.2156 277° West 267 307 13,000 -1,122 Descending Denver Center
Thu 10:51:43 AM 40.2433 -104.3131 277° West 254 292 11,900 -1,016 Descending Denver Center
Thu 10:52:45 AM 40.2389 -104.4003 266° West 254 292 10,900 -927 Descending Denver Center
Thu 10:53:46 AM 40.2064 -104.4867 244° Southwest 247 284 10,000 -732 Descending Denver Center
Thu 10:54:48 AM 40.1742 -104.5647 242° Southwest 246 283 9,400 -896 Descending Denver Center
Thu 10:56:00 AM 40.1000 -104.6167 208° Southwest 255 293 8,000 -919 Descending Denver TRACON
Thu 10:56:52 AM 40.0469 -104.6475 204° Southwest 248 285 7,500 -531 Descending Denver Center
Thu 10:57:53 AM 39.9933 -104.6783 204° Southwest 213 245 7,000 -634 Descending Denver Center
Thu 10:58:55 AM 39.9411 -104.6861 187° South 173 199 6,200 -774 Descending Denver Center
Thu 10:59:57 AM 39.8986 -104.6867 181° South 154 177 5,400 -774 Descending Denver Center
Thu 11:01:00 AM 39.8617 -104.6732 North  Level Estimated

Login

Don't have an account? Register now (free) for customized features, flight alerts, and more!